Time;durP1;ratioP1;P1;durP2;ratioP2;P2;SDS_P1;SDS_P2;PMS_P1;PMS_P2;Temp;Humidity;BMP_temperature;BMP_pressure;BME280_temperature;BME280_humidity;BME280_pressure;Samples;Min_cycle;Max_cycle;Signal;HPM_P1;HPM_P2
2023/02/07 00:02:31;;;;;;;;;72.80;59.60;;;;;0.52;45.84;101095.00;7766605;22;96738;-65
2023/02/07 00:05:35;;;;;;;;;71.00;56.25;;;;;0.46;45.55;101105.16;7768766;22;96190;-65
2023/02/07 00:08:40;;;;;;;;;68.40;52.20;;;;;0.38;45.84;101111.00;7768923;22;96194;-65
2023/02/07 00:11:43;;;;;;;;;71.00;57.75;;;;;0.28;45.37;101108.09;7761884;22;97098;-66
2023/02/07 00:14:48;;;;;;;;;70.75;57.00;;;;;-0.04;45.65;101082.84;7728980;22;96173;-65
2023/02/07 00:17:51;;;;;;;;;70.60;56.40;;;;;0.11;45.53;101111.00;7724018;22;96444;-64
2023/02/07 00:20:59;;;;;;;;;77.40;68.00;;;;;-0.09;45.91;101092.91;7729375;22;96302;-66
2023/02/07 00:24:03;;;;;;;;;72.00;57.00;;;;;-0.04;45.83;101104.91;7729946;22;96304;-65
2023/02/07 00:27:06;;;;;;;;;70.60;55.40;;;;;-0.22;45.88;101073.44;7730556;22;96434;-65
2023/02/07 00:30:12;;;;;;;;;70.00;55.00;;;;;-0.13;46.24;101072.84;7703046;22;96419;-65
2023/02/07 00:33:16;;;;;;;;;68.00;52.75;;;;;-0.27;46.61;101091.44;7703710;22;96209;-66
2023/02/07 00:36:22;;;;;;;;;66.00;51.00;;;;;-0.31;46.64;101096.09;7701860;22;96247;-66
2023/02/07 00:39:25;;;;;;;;;66.00;51.00;;;;;-0.24;46.60;101089.44;7730514;22;96243;-66
2023/02/07 00:42:29;;;;;;;;;62.60;47.40;;;;;-0.28;46.61;101076.50;7677458;22;98304;-65
2023/02/07 00:45:33;;;;;;;;;61.40;48.00;;;;;-0.40;46.48;101069.34;7701939;22;96726;-66
2023/02/07 00:48:38;;;;;;;;;64.60;50.00;;;;;-0.49;46.63;101076.91;7699091;22;96750;-66
2023/02/07 00:51:43;;;;;;;;;63.00;49.20;;;;;-0.46;46.74;101074.09;7726234;22;96280;-65
2023/02/07 00:54:46;;;;;;;;;62.00;50.00;;;;;-0.47;46.88;101068.88;7728185;22;96197;-66
2023/02/07 00:57:50;;;;;;;;;63.75;50.50;;;;;-0.48;46.77;101067.16;7729620;22;96249;-65
2023/02/07 01:00:54;;;;;;;;;65.00;51.00;;;;;-0.54;46.92;101072.88;7728726;22;96310;-65
2023/02/07 01:03:58;;;;;;;;;64.00;50.00;;;;;-0.57;46.92;101058.03;7702530;22;96248;-66
2023/02/07 01:07:01;;;;;;;;;68.25;53.00;;;;;-0.58;46.82;101060.75;7729021;22;96407;-66
2023/02/07 01:10:06;;;;;;;;;65.40;50.60;;;;;-0.57;46.89;101054.50;7699959;22;96258;-65
2023/02/07 01:13:09;;;;;;;;;68.60;53.00;;;;;-0.62;46.97;101053.97;7751844;22;96411;-66
2023/02/07 01:16:23;;;;;;;;;70.00;54.50;;;;;-0.68;47.20;101055.19;7767525;22;96514;-65
2023/02/07 01:19:26;;;;;;;;;73.20;59.40;;;;;-0.68;47.10;101063.13;7740363;22;96703;-66
2023/02/07 01:22:29;;;;;;;;;75.00;62.80;;;;;-0.74;46.94;101057.41;7741152;22;96259;-66
2023/02/07 01:25:33;;;;;;;;;76.80;67.40;;;;;-0.79;46.77;101046.25;7740540;22;96343;-66
2023/02/07 01:28:39;;;;;;;;;75.25;65.00;;;;;-0.77;47.10;101053.13;7741297;22;96584;-66
2023/02/07 01:39:06;;;;;;;;;81.00;71.60;;;;;-1.23;46.49;101006.66;7672821;22;99730;-66
2023/02/07 01:42:13;;;;;;;;;80.00;70.00;;;;;-1.24;47.05;101019.03;7702809;22;96312;-65
2023/02/07 01:45:25;;;;;;;;;82.20;73.00;;;;;-1.27;46.88;101016.56;7728209;22;96316;-66
2023/02/07 01:48:32;;;;;;;;;78.50;66.50;;;;;-1.16;47.06;101043.22;7702917;22;96610;-66
2023/02/07 01:51:37;;;;;;;;;76.40;65.00;;;;;-1.20;47.19;101039.06;7701451;22;96766;-66
2023/02/07 01:54:42;;;;;;;;;78.20;69.20;;;;;-1.34;47.09;101016.13;7701913;22;96380;-66
2023/02/07 01:57:45;;;;;;;;;79.00;66.50;;;;;-1.32;46.89;101023.97;7729025;22;96922;-66
2023/02/07 02:00:50;;;;;;;;;78.20;69.20;;;;;-1.34;47.13;101028.50;7701036;22;96338;-67
2023/02/07 02:03:56;;;;;;;;;82.40;73.00;;;;;-1.43;47.39;101027.25;7728783;22;96322;-65
2023/02/07 02:06:59;;;;;;;;;80.80;75.00;;;;;-1.58;47.15;101024.69;7675856;22;96621;-66
2023/02/07 02:10:09;;;;;;;;;78.00;69.00;;;;;-1.68;47.58;101020.91;7727268;22;96264;-66
2023/02/07 02:13:23;;;;;;;;;80.50;70.50;;;;;-1.67;47.51;101023.47;7728381;22;96212;-65
2023/02/07 02:16:34;;;;;;;;;78.75;69.00;;;;;-1.68;47.62;101034.13;7676191;22;99085;-65
2023/02/07 02:20:09;;;;;;;;;81.50;68.50;;;;;-1.67;47.80;101049.06;7728278;22;96406;-65
2023/02/07 02:23:25;;;;;;;;;76.50;66.00;;;;;-1.77;47.99;101023.16;7701185;22;96319;-64
2023/02/07 02:26:58;;;;;;;;;79.60;72.20;;;;;-1.76;47.85;101021.38;7702752;22;96251;-64
2023/02/07 02:30:31;;;;;;;;;76.60;66.80;;;;;-1.57;47.89;101066.94;7656712;22;96740;-65
2023/02/07 02:33:44;;;;;;;;;85.75;73.00;;;;;-1.58;48.10;101061.72;7693937;22;96402;-65
2023/02/07 02:36:56;;;;;;;;;81.40;70.80;;;;;-1.59;47.63;101063.50;7705601;22;96886;-65
2023/02/07 02:40:07;;;;;;;;;80.00;72.25;;;;;-1.70;47.50;101052.72;7706018;22;96299;-64
2023/02/07 02:43:19;;;;;;;;;90.00;78.60;;;;;-1.71;47.53;101052.81;7731807;22;96188;-64
2023/02/07 02:46:27;;;;;;;;;88.40;78.80;;;;;-1.71;47.71;101045.72;7677168;22;96858;-64
2023/02/07 02:49:36;;;;;;;;;84.80;75.80;;;;;-1.88;48.13;101036.16;7703123;22;96489;-65
2023/02/07 02:52:39;;;;;;;;;78.20;68.20;;;;;-2.00;48.45;101017.50;7705259;22;96415;-65
2023/02/07 02:56:13;;;;;;;;;79.25;69.50;;;;;-2.08;48.81;101025.91;7703635;22;96255;-64
2023/02/07 02:59:37;;;;;;;;;82.40;73.40;;;;;-1.89;48.46;101060.88;7705796;22;97141;-65
2023/02/07 03:02:53;;;;;;;;;78.80;70.00;;;;;-1.94;48.85;101070.03;7682084;22;96851;-64
2023/02/07 03:06:07;;;;;;;;;79.33;69.00;;;;;-1.94;49.07;101070.03;7705851;22;96434;-63
2023/02/07 03:09:21;;;;;;;;;78.20;66.00;;;;;-1.89;48.79;101070.59;7706372;22;96898;-63
2023/02/07 03:12:32;;;;;;;;;81.40;71.80;;;;;-1.88;49.12;101064.38;7733388;22;96491;-63
2023/02/07 03:15:47;;;;;;;;;78.00;69.00;;;;;-1.83;49.25;101067.59;7705703;22;96190;-65
2023/02/07 03:19:00;;;;;;;;;76.80;66.80;;;;;-1.76;49.36;101061.03;7706662;22;96262;-64
2023/02/07 03:22:11;;;;;;;;;76.40;64.60;;;;;-1.77;49.71;101054.88;7705409;22;96805;-63
2023/02/07 03:25:21;;;;;;;;;75.50;62.25;;;;;-1.75;49.82;101058.28;7732655;22;96411;-63
2023/02/07 03:28:28;;;;;;;;;76.60;68.20;;;;;-1.76;50.00;101072.44;7694685;22;96853;-64
2023/02/07 03:42:59;;;;;;;;;78.20;65.00;;;;;-1.49;49.85;101064.66;7730249;22;97874;-66
2023/02/07 03:46:02;;;;;;;;;73.00;60.60;;;;;-1.44;49.75;101067.03;7733417;22;96212;-65
2023/02/07 03:49:07;;;;;;;;;75.20;64.60;;;;;-1.65;49.51;101033.91;7732901;22;96674;-66
2023/02/07 03:52:11;;;;;;;;;75.00;64.00;;;;;-1.38;49.54;101064.88;7706978;22;96399;-66
2023/02/07 03:55:14;;;;;;;;;74.00;63.00;;;;;-1.21;49.12;101066.47;7706360;22;98863;-65
2023/02/07 03:58:19;;;;;;;;;73.00;59.75;;;;;-1.22;49.39;101064.78;7706594;22;97415;-65
2023/02/07 04:24:18;;;;;;;;;70.00;57.00;;;;;-1.03;48.09;101072.47;7763315;22;99959;-65
2023/02/07 04:27:22;;;;;;;;;69.00;54.20;;;;;-1.40;48.26;101010.34;7782416;22;96453;-65
2023/02/07 05:12:40;;;;;;;;;72.80;58.40;;;;;-1.33;47.73;101051.38;7726493;22;96935;-91
2023/02/07 05:19:21;;;;;;;;;73.60;60.00;;;;;-2.05;47.44;100935.84;7670863;22;99026;-89
2023/02/07 05:22:25;;;;;;;;;70.40;58.40;;;;;-1.15;47.35;101087.28;7768690;22;96251;-90
2023/02/07 05:25:29;;;;;;;;;70.00;56.00;;;;;-1.33;47.65;101083.13;7744213;22;96433;-89
2023/02/07 05:39:09;;;;;;;;;65.60;51.20;;;;;-1.23;47.85;101092.22;7742566;22;97558;-66
2023/02/07 05:42:12;;;;;;;;;65.00;51.00;;;;;-1.18;47.59;101089.28;7768656;22;96201;-66
2023/02/07 05:45:16;;;;;;;;;69.00;53.00;;;;;-1.26;47.53;101084.44;7769946;22;96280;-65
2023/02/07 05:48:19;;;;;;;;;67.00;52.00;;;;;-1.24;47.53;101085.22;7768710;22;98606;-66
2023/02/07 05:51:23;;;;;;;;;67.50;53.00;;;;;-1.18;47.62;101079.56;7808109;22;96768;-67
2023/02/07 05:54:42;;;;;;;;;67.00;52.00;;;;;-1.11;47.61;101074.72;7732053;22;97781;31
2023/02/07 05:57:47;;;;;;;;;66.75;52.00;;;;;-1.04;47.02;101082.19;7722759;22;96236;-65
2023/02/07 06:04:33;;;;;;;;;69.60;53.00;;;;;-1.20;47.05;101052.31;7713154;22;98462;-66
2023/02/07 06:07:36;;;;;;;;;66.00;51.40;;;;;-0.93;47.25;101085.00;7744610;22;96969;-65
2023/02/07 06:10:40;;;;;;;;;66.00;51.00;;;;;-0.97;47.21;101080.00;7771491;22;96949;-65
2023/02/07 06:13:44;;;;;;;;;68.80;52.80;;;;;-0.88;46.93;101082.09;7770667;22;98383;-66
2023/02/07 06:16:48;;;;;;;;;67.00;52.00;;;;;-0.67;46.64;101101.94;7769219;22;99020;-66
2023/02/07 06:19:51;;;;;;;;;67.60;53.00;;;;;-0.58;46.56;101111.09;7769824;22;96277;-66
2023/02/07 06:22:55;;;;;;;;;67.40;52.20;;;;;-0.56;46.95;101117.16;7767444;22;96281;-65
2023/02/07 06:25:59;;;;;;;;;67.50;53.00;;;;;-0.56;46.71;101118.00;7770897;22;96308;-65
2023/02/07 06:29:04;;;;;;;;;66.00;52.00;;;;;-0.55;46.68;101121.53;7769495;22;96653;-65
2023/02/07 06:32:07;;;;;;;;;69.20;54.60;;;;;-1.46;46.48;100995.69;7743636;22;98957;-66
2023/02/07 06:35:10;;;;;;;;;69.75;55.00;;;;;-0.51;46.94;101125.69;7771727;22;96703;-65
2023/02/07 06:38:14;;;;;;;;;69.40;54.60;;;;;-0.41;46.79;101125.94;7769521;22;96814;-65
2023/02/07 06:41:17;;;;;;;;;70.60;55.00;;;;;-0.35;46.69;101122.91;7770476;22;96284;-66
2023/02/07 06:44:23;;;;;;;;;68.00;54.60;;;;;-0.39;46.56;101127.53;7770036;22;96548;-65
2023/02/07 06:47:26;;;;;;;;;71.00;58.00;;;;;-0.37;46.39;101125.66;7770915;22;96734;-65
2023/02/07 06:50:40;;;;;;;;;70.40;56.00;;;;;-0.33;46.73;101132.44;7726180;22;99812;-90
2023/02/07 06:53:44;;;;;;;;;73.80;62.00;;;;;-0.47;46.32;101120.06;7739597;22;97017;-90
2023/02/07 06:56:49;;;;;;;;;73.67;62.67;;;;;-0.44;46.43;101108.44;7714368;22;99638;-66
2023/02/07 07:03:44;;;;;;;;;71.00;54.50;;;;;-0.38;46.62;101115.13;7683510;22;99947;-89
2023/02/07 07:17:53;;;;;;;;;69.60;54.60;;;;;-0.21;47.08;101107.81;7693356;22;96535;-66
2023/02/07 07:20:58;;;;;;;;;67.20;53.00;;;;;-0.32;47.20;101104.16;7688310;22;96261;-66
2023/02/07 07:24:02;;;;;;;;;64.00;51.00;;;;;-0.36;47.34;101115.91;7690774;22;96305;-66
2023/02/07 07:27:05;;;;;;;;;65.20;51.80;;;;;-0.39;47.19;101098.38;7728190;22;96533;-67
2023/02/07 07:30:10;;;;;;;;;69.00;53.00;;;;;-0.41;47.44;101104.75;7705844;22;98751;-66
2023/02/07 07:33:13;;;;;;;;;73.00;59.00;;;;;-0.37;47.78;101106.25;7731639;22;97018;-65
2023/02/07 07:36:18;;;;;;;;;71.40;56.20;;;;;-0.28;47.94;101124.19;7677866;22;96252;-66
2023/02/07 07:39:21;;;;;;;;;67.00;52.00;;;;;-0.26;47.65;101117.88;7678878;22;98708;-66
2023/02/07 07:42:25;;;;;;;;;71.00;58.40;;;;;-0.29;48.18;101118.03;7732133;22;96306;-66
2023/02/07 07:45:42;;;;;;;;;68.00;55.25;;;;;-0.18;47.68;101128.81;7705800;22;96576;-67
2023/02/07 07:48:46;;;;;;;;;74.20;59.40;;;;;-0.11;47.61;101130.13;7729860;22;96861;-66
2023/02/07 07:51:52;;;;;;;;;72.00;56.00;;;;;0.04;47.56;101117.69;7702630;22;96491;-66
2023/02/07 07:54:55;;;;;;;;;71.00;58.60;;;;;-0.13;47.84;101086.09;7704363;22;96320;-65
2023/02/07 07:57:58;;;;;;;;;69.80;55.20;;;;;0.14;47.79;101112.63;7728985;22;96445;-67
2023/02/07 08:16:03;;;;;;;;;73.00;59.80;;;;;0.52;47.63;101108.25;7752051;22;97778;-66
2023/02/07 08:19:07;;;;;;;;;74.20;61.40;;;;;0.56;47.66;101098.28;7767503;22;96309;-65
2023/02/07 08:22:11;;;;;;;;;69.80;55.20;;;;;0.63;47.44;101097.78;7741175;22;97229;-65
2023/02/07 08:25:14;;;;;;;;;68.60;54.00;;;;;0.68;47.22;101098.31;7769760;22;96687;-65
2023/02/07 08:51:08;;;;;;;;;69.20;52.00;;;;;0.82;47.86;101084.94;7666891;22;96649;-65
2023/02/07 08:54:12;;;;;;;;;66.60;52.00;;;;;0.78;47.68;101072.78;7691160;22;96354;-66
2023/02/07 08:57:16;;;;;;;;;67.00;52.00;;;;;0.88;47.85;101086.28;7693811;22;96350;-66
2023/02/07 09:15:01;;;;;;;;;68.00;55.00;;;;;1.04;48.36;101068.34;7630494;22;96558;-65
2023/02/07 10:19:03;;;;;;;;;68.60;52.80;;;;;1.62;48.49;101070.34;7670473;22;100101;-90
2023/02/07 10:25:56;;;;;;;;;66.40;51.00;;;;;1.22;48.63;101019.19;7753540;22;99682;-92
2023/02/07 10:32:46;;;;;;;;;71.20;57.00;;;;;1.43;49.32;101066.44;7759007;22;99824;-92
2023/02/07 10:35:55;;;;;;;;;70.00;57.00;;;;;1.33;49.14;101049.47;7698018;22;98320;-93
2023/02/07 10:46:34;;;;;;;;;73.60;59.20;;;;;1.59;48.96;101038.66;7736164;22;98352;-92
2023/02/07 10:49:38;;;;;;;;;76.00;61.40;;;;;1.46;48.89;100983.84;7739658;22;96231;-93
2023/02/07 10:52:49;;;;;;;;;72.00;58.20;;;;;1.69;49.10;101013.09;7735310;22;96465;-93
2023/02/07 10:55:53;;;;;;;;;71.40;56.80;;;;;1.71;49.03;101020.97;7733375;22;96345;-92
2023/02/07 10:58:57;;;;;;;;;73.60;58.60;;;;;2.02;49.23;101052.28;7729574;22;96212;-93
2023/02/07 11:02:01;;;;;;;;;71.75;57.75;;;;;1.33;49.31;100946.69;7739955;22;99357;-93
2023/02/07 11:08:51;;;;;;;;;73.00;59.40;;;;;1.91;49.73;101027.44;7798502;22;96299;-92
2023/02/07 11:15:49;;;;;;;;;73.67;61.00;;;;;2.08;49.28;101008.41;7685647;22;96198;-92
2023/02/07 11:19:01;;;;;;;;;71.40;59.00;;;;;2.12;49.48;101001.91;7660142;22;96749;-92
2023/02/07 11:22:10;;;;;;;;;72.40;59.80;;;;;2.45;49.08;101039.25;7693948;22;99002;-92
2023/02/07 11:47:30;;;;;;;;;76.50;61.75;;;;;3.13;47.91;101019.69;7717427;22;96700;-91
2023/02/07 12:01:55;;;;;;;;;76.00;64.75;;;;;3.62;47.24;101000.56;7740840;22;99718;-92
2023/02/07 12:05:14;;;;;;;;;72.75;59.75;;;;;3.84;46.58;101029.84;7734596;22;96780;-92
2023/02/07 12:08:21;;;;;;;;;72.25;57.50;;;;;2.72;46.20;100846.31;7738334;22;96481;-91
2023/02/07 12:11:32;;;;;;;;;72.20;60.40;;;;;3.48;45.52;100900.38;7737510;22;96698;-91
2023/02/07 12:14:42;;;;;;;;;72.00;57.25;;;;;3.68;45.91;100933.38;7736180;22;96853;-92
2023/02/07 12:18:04;;;;;;;;;72.00;59.80;;;;;4.02;45.45;100990.09;7764428;22;96349;-91
2023/02/07 12:24:58;;;;;;;;;76.20;64.20;;;;;4.16;45.41;100979.13;7741466;22;98783;-67
2023/02/07 12:28:13;;;;;;;;;74.00;61.40;;;;;3.83;45.00;100915.25;7771368;22;96919;-63
2023/02/07 12:31:25;;;;;;;;;72.80;61.00;;;;;4.20;45.62;100975.19;7743414;22;96295;-66
2023/02/07 12:34:34;;;;;;;;;74.00;63.00;;;;;4.30;45.40;100967.28;7744464;22;96377;-65
2023/02/07 12:37:46;;;;;;;;;74.20;60.60;;;;;4.33;45.22;100972.34;7770036;22;96281;-65
2023/02/07 12:40:56;;;;;;;;;77.60;67.00;;;;;4.28;45.01;100975.41;7770861;22;96470;-67
2023/02/07 12:44:06;;;;;;;;;77.40;67.60;;;;;4.13;45.45;100976.72;7718102;22;98689;-66
2023/02/07 12:47:22;;;;;;;;;79.00;70.00;;;;;4.18;45.41;100973.66;7769474;22;96323;-67
2023/02/07 12:50:42;;;;;;;;;78.75;67.00;;;;;4.14;45.60;100986.44;7767934;22;96412;-67
2023/02/07 12:54:03;;;;;;;;;78.00;67.00;;;;;4.12;45.72;100992.84;7741369;22;96485;-65
2023/02/07 12:57:12;;;;;;;;;77.00;68.25;;;;;4.03;46.25;100997.16;7766472;22;96438;-67
2023/02/07 13:00:23;;;;;;;;;79.00;69.00;;;;;4.01;46.62;100999.09;7767002;22;96341;-66
2023/02/07 13:03:46;;;;;;;;;77.20;65.20;;;;;4.01;46.64;100996.41;7757150;22;97898;-66
2023/02/07 13:07:05;;;;;;;;;78.00;69.00;;;;;3.84;46.94;101003.19;7742620;22;96349;-67
2023/02/07 13:10:21;;;;;;;;;77.75;67.00;;;;;3.70;47.10;101015.97;7768527;22;96267;-67
2023/02/07 13:13:30;;;;;;;;;78.20;68.40;;;;;3.58;47.82;101007.13;7741319;22;98946;-67
2023/02/07 13:16:41;;;;;;;;;76.80;65.40;;;;;3.59;47.78;101007.97;7741885;22;96322;-66
2023/02/07 21:41:30;;;;;;;;;106.00;90.20;;;;;4.07;50.41;101193.44;7726663;22;101570;-92
2023/02/07 21:44:36;;;;;;;;;97.00;86.25;;;;;4.09;50.25;101194.19;7650032;22;98244;-91
2023/02/07 21:47:40;;;;;;;;;101.60;87.00;;;;;3.87;50.45;101173.69;7714315;22;96655;-92
2023/02/07 21:50:44;;;;;;;;;99.00;89.20;;;;;4.03;50.56;101212.50;7708075;22;98263;-91
2023/02/07 21:53:48;;;;;;;;;101.20;89.00;;;;;4.06;50.59;101204.25;7714358;22;96417;-90
2023/02/07 21:56:52;;;;;;;;;107.00;93.00;;;;;3.59;50.43;101122.69;7714872;22;96300;-91
2023/02/07 21:59:57;;;;;;;;;99.80;88.40;;;;;4.06;50.36;101205.09;7717809;22;96313;-90
2023/02/07 22:03:01;;;;;;;;;101.80;91.80;;;;;4.08;50.37;101199.63;7701375;22;96434;-92
2023/02/07 22:09:50;;;;;;;;;99.40;88.40;;;;;3.99;50.38;101206.56;7789412;22;99962;-68
2023/02/07 22:12:54;;;;;;;;;97.67;87.00;;;;;3.99;50.59;101197.72;7778763;22;97066;-69
2023/02/07 22:15:59;;;;;;;;;107.00;89.50;;;;;3.83;50.60;101188.25;7805690;22;96250;-69
2023/02/07 22:19:04;;;;;;;;;106.20;95.20;;;;;3.89;50.93;101202.94;7807432;22;96329;-69
2023/02/07 22:29:38;;;;;;;;;107.00;93.50;;;;;3.79;51.18;101191.31;7740655;22;98457;-91
2023/02/07 22:40:07;;;;;;;;;103.20;93.40;;;;;3.56;51.18;101168.28;7758360;22;99911;-91
2023/02/07 22:43:14;;;;;;;;;101.20;85.60;;;;;3.87;50.89;101204.88;7752881;22;96662;-91
2023/02/07 22:46:20;;;;;;;;;102.40;91.00;;;;;3.71;51.31;101165.25;7752175;22;96978;-93
2023/02/07 22:49:23;;;;;;;;;103.00;90.75;;;;;3.28;51.14;101092.25;7754078;22;96429;-93
2023/02/07 22:52:27;;;;;;;;;97.80;87.00;;;;;3.88;51.18;101188.75;7754804;22;96273;-92
2023/02/07 23:40:31;;;;;;;;;100.00;86.75;;;;;3.87;51.46;101187.03;7768399;22;100034;-67
